BOX527 VHHH-EDDP
Flight info
| Callsign | BOX527 |
|---|---|
| Flight time | N/A |
| Altitude | 27600 |
| Route | BEKOL A461 IDUMA W22 TEPID W24 OSNOV G586 SJG B330 ELKAL W179 IGNAK/K0889S0810 W179 IPLOL/K0930S0890 W179 WFX/K0904S0840 W179 OMBON/K0920S0920 Y1 SADAN W186 KAMUD/K0920F300 L141 TISIB L163 SR N193 OGOLI/K0907F320 T898 DARVA/N0490F320 B476 METKA L88 NIJAT N644 ADEKI DCT BADIR DCT LAGAS DCT NOLGA UG261 TBN UM11 CRM UL746 EVGEG/N0478F340 UL746 ODERO DCT DINRO DCT KEKED DCT HAFAF DCT BEFRE DCT IVQOQ/N0491F300 T951 YAWOY YAWOY1V |
| Aircraft | B77L/H-SDE1E2E3FGHIJ2J3J4J5M1RWXY/LB1D1 |
Departure
| Time | N/A |
|---|---|
| Airport | Hong Kong International Airport (VHHH) |
Arrival
| Time | 2026-05-04 09:03 |
|---|---|
| Airport | Leipzig/Halle Airport (EDDP) |
| Time | Latitude | Longitude | Altitude | Speed | Heading |
|---|---|---|---|---|---|
| 2026-05-04 08:12 | 48.90734 | 20.23074 | 34129 ft | 483 kts | 300° |
| 2026-05-04 08:12 | 48.92307 | 20.18640 | 34134 ft | 483 kts | 300° |
| 2026-05-04 08:12 | 48.95422 | 20.09836 | 34133 ft | 483 kts | 300° |
| 2026-05-04 08:13 | 48.98579 | 20.00881 | 34133 ft | 482 kts | 300° |
| 2026-05-04 08:13 | 49.01753 | 19.91846 | 34134 ft | 482 kts | 300° |
| 2026-05-04 08:14 | 49.04903 | 19.82851 | 34124 ft | 483 kts | 300° |
| 2026-05-04 08:16 | 49.17477 | 19.46617 | 34118 ft | 482 kts | 299° |
| 2026-05-04 08:16 | 49.20618 | 19.37488 | 34112 ft | 483 kts | 299° |
| 2026-05-04 08:17 | 49.23694 | 19.28514 | 34108 ft | 483 kts | 298° |
| 2026-05-04 08:17 | 49.26803 | 19.19412 | 34102 ft | 483 kts | 298° |
| 2026-05-04 08:19 | 49.39126 | 18.83011 | 34092 ft | 482 kts | 298° |
| 2026-05-04 08:20 | 49.42199 | 18.73855 | 34087 ft | 482 kts | 298° |
| 2026-05-04 08:20 | 49.45265 | 18.64682 | 34086 ft | 481 kts | 298° |
| 2026-05-04 08:21 | 49.48297 | 18.55581 | 34078 ft | 481 kts | 297° |
| 2026-05-04 08:21 | 49.51351 | 18.46379 | 34076 ft | 481 kts | 297° |
| 2026-05-04 08:22 | 49.54380 | 18.37222 | 34072 ft | 480 kts | 297° |
| 2026-05-04 08:24 | 49.66387 | 18.00581 | 34058 ft | 479 kts | 296° |
| 2026-05-04 08:24 | 49.69376 | 17.91379 | 34056 ft | 480 kts | 296° |
| 2026-05-04 08:25 | 49.72363 | 17.82146 | 34057 ft | 480 kts | 296° |
| 2026-05-04 08:25 | 49.75335 | 17.72927 | 34049 ft | 479 kts | 296° |
| 2026-05-04 08:27 | 49.87108 | 17.36066 | 34047 ft | 480 kts | 296° |
| 2026-05-04 08:28 | 49.89983 | 17.26981 | 34048 ft | 481 kts | 295° |
| 2026-05-04 08:28 | 49.92915 | 17.17684 | 34047 ft | 480 kts | 295° |
| 2026-05-04 08:29 | 49.95842 | 17.08363 | 34047 ft | 479 kts | 295° |
| 2026-05-04 08:31 | 50.07425 | 16.71140 | 34039 ft | 479 kts | 295° |
| 2026-05-04 08:33 | 50.18805 | 16.34011 | 34010 ft | 477 kts | 294° |
| 2026-05-04 08:35 | 50.31128 | 16.03580 | 34004 ft | 480 kts | 305° |
| 2026-05-04 08:35 | 50.33150 | 15.99409 | 34007 ft | 479 kts | 305° |
| 2026-05-04 08:35 | 50.37162 | 15.91087 | 34009 ft | 480 kts | 305° |
| 2026-05-04 08:37 | 50.51111 | 15.61812 | 34004 ft | 479 kts | 304° |
| 2026-05-04 08:38 | 50.55069 | 15.53432 | 34007 ft | 479 kts | 304° |
| 2026-05-04 08:38 | 50.59021 | 15.45037 | 34001 ft | 479 kts | 304° |
| 2026-05-04 08:40 | 50.74840 | 15.11158 | 33995 ft | 478 kts | 303° |
| 2026-05-04 08:40 | 50.76790 | 15.06955 | 33674 ft | 470 kts | 303° |
| 2026-05-04 08:41 | 50.78724 | 15.02776 | 32707 ft | 474 kts | 303° |
| 2026-05-04 08:41 | 50.80637 | 14.98634 | 31806 ft | 475 kts | 304° |
| 2026-05-04 08:41 | 50.82583 | 14.94414 | 30974 ft | 475 kts | 304° |
| 2026-05-04 08:41 | 50.84512 | 14.90226 | 30402 ft | 469 kts | 304° |
| 2026-05-04 08:42 | 50.86423 | 14.86073 | 29971 ft | 461 kts | 304° |
| 2026-05-04 08:42 | 50.88289 | 14.82010 | 29484 ft | 454 kts | 304° |
| 2026-05-04 08:42 | 50.90113 | 14.78030 | 28977 ft | 447 kts | 304° |
| 2026-05-04 08:42 | 50.91932 | 14.74041 | 28462 ft | 441 kts | 302° |
| 2026-05-04 08:43 | 50.93456 | 14.69879 | 27962 ft | 433 kts | 293° |
| 2026-05-04 08:43 | 50.94529 | 14.65463 | 27459 ft | 429 kts | 286° |
| 2026-05-04 08:43 | 50.95384 | 14.60917 | 26954 ft | 441 kts | 285° |
| 2026-05-04 08:43 | 50.96240 | 14.56239 | 26389 ft | 440 kts | 285° |
| 2026-05-04 08:44 | 50.97084 | 14.51584 | 25846 ft | 435 kts | 284° |
| 2026-05-04 08:44 | 50.97906 | 14.47016 | 25311 ft | 430 kts | 284° |
| 2026-05-04 08:46 | 51.03335 | 14.16347 | 21569 ft | 410 kts | 283° |
| 2026-05-04 08:46 | 51.04089 | 14.12033 | 21034 ft | 406 kts | 283° |
| 2026-05-04 08:46 | 51.04841 | 14.07721 | 20484 ft | 403 kts | 283° |
| 2026-05-04 08:46 | 51.05579 | 14.03474 | 19949 ft | 399 kts | 283° |
| 2026-05-04 08:47 | 51.06314 | 13.99236 | 19406 ft | 396 kts | 283° |
| 2026-05-04 08:47 | 51.07033 | 13.95076 | 18882 ft | 393 kts | 283° |
| 2026-05-04 08:47 | 51.07752 | 13.90909 | 18351 ft | 390 kts | 283° |
| 2026-05-04 08:47 | 51.08466 | 13.86764 | 17819 ft | 387 kts | 283° |
| 2026-05-04 08:48 | 51.09174 | 13.82640 | 17289 ft | 385 kts | 282° |
| 2026-05-04 08:48 | 51.09870 | 13.78577 | 16761 ft | 382 kts | 282° |
| 2026-05-04 08:48 | 51.10495 | 13.74919 | 16278 ft | 381 kts | 282° |
| 2026-05-04 08:48 | 51.11179 | 13.70905 | 15746 ft | 378 kts | 282° |
| 2026-05-04 08:49 | 51.11843 | 13.66999 | 15233 ft | 377 kts | 283° |
| 2026-05-04 08:50 | 51.15857 | 13.43221 | 12049 ft | 363 kts | 283° |
| 2026-05-04 08:50 | 51.16504 | 13.39360 | 11531 ft | 360 kts | 283° |
| 2026-05-04 08:51 | 51.17183 | 13.35531 | 11004 ft | 358 kts | 289° |
| 2026-05-04 08:51 | 51.18281 | 13.32212 | 10721 ft | 351 kts | 302° |
| 2026-05-04 08:51 | 51.19721 | 13.29140 | 10658 ft | 336 kts | 305° |
| 2026-05-04 08:51 | 51.21128 | 13.26252 | 10533 ft | 322 kts | 305° |
| 2026-05-04 08:52 | 51.22459 | 13.23535 | 10425 ft | 305 kts | 305° |
| 2026-05-04 08:52 | 51.23741 | 13.20920 | 10311 ft | 291 kts | 305° |
| 2026-05-04 08:52 | 51.24967 | 13.18416 | 10190 ft | 280 kts | 305° |
| 2026-05-04 08:52 | 51.26131 | 13.16037 | 10069 ft | 270 kts | 305° |
| 2026-05-04 08:53 | 51.27287 | 13.13673 | 9858 ft | 268 kts | 305° |
| 2026-05-04 08:54 | 51.35331 | 12.97163 | 7406 ft | 267 kts | 305° |
| 2026-05-04 08:55 | 51.36472 | 12.94812 | 7070 ft | 265 kts | 305° |
| 2026-05-04 08:55 | 51.37591 | 12.92505 | 6741 ft | 264 kts | 305° |
| 2026-05-04 08:55 | 51.38722 | 12.90171 | 6399 ft | 264 kts | 305° |
| 2026-05-04 08:55 | 51.39842 | 12.87859 | 6069 ft | 263 kts | 305° |
| 2026-05-04 08:57 | 51.43382 | 12.70020 | 4638 ft | 245 kts | 265° |
| 2026-05-04 09:01 | 51.41945 | 12.37568 | 1898 ft | 150 kts | 265° |
| 2026-05-04 09:01 | 51.41864 | 12.35903 | 1722 ft | 151 kts | 266° |
| 2026-05-04 09:01 | 51.41797 | 12.34245 | 1527 ft | 151 kts | 266° |
| 2026-05-04 09:01 | 51.41729 | 12.32574 | 1311 ft | 151 kts | 264° |
| 2026-05-04 09:02 | 51.41640 | 12.30898 | 1131 ft | 151 kts | 265° |
| 2026-05-04 09:02 | 51.41563 | 12.29219 | 910 ft | 150 kts | 266° |
| 2026-05-04 09:02 | 51.41490 | 12.27554 | 758 ft | 151 kts | 265° |
| 2026-05-04 09:02 | 51.41409 | 12.25872 | 560 ft | 150 kts | 266° |
| 2026-05-04 09:03 | 51.41338 | 12.24263 | 485 ft | 135 kts | 265° |
| 2026-05-04 09:03 | 51.41277 | 12.22969 | 484 ft | 94 kts | 266° |
| 2026-05-04 09:03 | 51.41240 | 12.22190 | 484 ft | 51 kts | 266° |
| 2026-05-04 09:03 | 51.41176 | 12.21794 | 484 ft | 25 kts | 239° |
| 2026-05-04 09:04 | 51.41103 | 12.21656 | 484 ft | 11 kts | 196° |
| 2026-05-04 09:04 | 51.41049 | 12.21722 | 484 ft | 11 kts | 95° |
| 2026-05-04 09:04 | 51.41054 | 12.21861 | 484 ft | 15 kts | 86° |
| 2026-05-04 09:04 | 51.41065 | 12.22070 | 484 ft | 21 kts | 85° |
| 2026-05-04 09:05 | 51.41076 | 12.22324 | 484 ft | 22 kts | 86° |
| 2026-05-04 09:05 | 51.41087 | 12.22561 | 484 ft | 20 kts | 85° |
| 2026-05-04 09:05 | 51.41097 | 12.22788 | 484 ft | 21 kts | 85° |
| 2026-05-04 09:05 | 51.41110 | 12.23036 | 484 ft | 23 kts | 85° |
| 2026-05-04 09:06 | 51.41122 | 12.23310 | 484 ft | 25 kts | 85° |
| 2026-05-04 09:07 | 51.41096 | 12.24662 | 484 ft | 12 kts | 86° |
| 2026-05-04 09:08 | 51.41105 | 12.24817 | 484 ft | 15 kts | 86° |
| 2026-05-04 09:08 | 51.41113 | 12.24987 | 484 ft | 14 kts | 85° |
| 2026-05-04 09:08 | 51.41110 | 12.25121 | 484 ft | 9 kts | 130° |
| 2026-05-04 09:08 | 51.41043 | 12.25149 | 484 ft | 9 kts | 175° |
| 2026-05-04 09:09 | 51.40976 | 12.25158 | 484 ft | 9 kts | 175° |
| 2026-05-04 09:09 | 51.40935 | 12.25107 | 484 ft | 8 kts | 259° |
| 2026-05-04 09:09 | 51.40931 | 12.25023 | 484 ft | 3 kts | 265° |
| 2026-05-04 09:09 | 51.40930 | 12.25000 | 484 ft | 0 kts | 265° |